createdAt,value
2023-04-09T00:01:21.715Z,64.53
2023-04-09T00:03:50.076Z,64.42
2023-04-09T00:06:20.573Z,64.66
2023-04-09T00:08:51.377Z,64.68
2023-04-09T00:11:23.657Z,64.65
2023-04-09T00:13:54.342Z,64.64
2023-04-09T00:16:24.638Z,64.72
2023-04-09T00:18:52.474Z,64.73
2023-04-09T00:21:20.826Z,64.87
2023-04-09T00:23:48.432Z,64.96
2023-04-09T00:26:31.171Z,65.07
2023-04-09T00:29:01.232Z,65.09
2023-04-09T00:31:29.164Z,65.09
2023-04-09T00:33:57.015Z,64.85
2023-04-09T00:36:27.017Z,64.75
2023-04-09T00:38:59.381Z,65.06
2023-04-09T00:41:27.767Z,64.89
2023-04-09T00:43:56.836Z,64.95
2023-04-09T00:46:24.603Z,64.79
2023-04-09T00:48:53.141Z,64.93
2023-04-09T00:51:21.142Z,65.21
2023-04-09T00:53:49.130Z,65.13
2023-04-09T00:56:22.343Z,65.17
2023-04-09T00:58:51.368Z,65.05
2023-04-09T01:01:19.448Z,64.88
2023-04-09T01:03:47.416Z,64.91
2023-04-09T01:06:23.283Z,64.84
2023-04-09T01:08:58.385Z,64.83
2023-04-09T01:11:34.617Z,64.79
2023-04-09T01:14:06.306Z,64.85
2023-04-09T01:16:36.769Z,65.02
2023-04-09T01:19:09.559Z,65.02
2023-04-09T01:21:38.834Z,64.95
2023-04-09T01:24:19.201Z,65.04
2023-04-09T01:26:53.973Z,64.89
2023-04-09T01:29:25.321Z,65.12
2023-04-09T01:31:54.102Z,65.12
2023-04-09T01:34:22.367Z,64.95
2023-04-09T01:36:51.969Z,65.29
2023-04-09T01:39:20.991Z,65.48
2023-04-09T01:41:49.718Z,65.34
2023-04-09T01:44:18.222Z,65.28
2023-04-09T01:46:46.662Z,65.27
2023-04-09T01:49:14.471Z,65.08
2023-04-09T01:51:45.847Z,65.24
2023-04-09T01:54:13.527Z,65.30
2023-04-09T01:56:41.756Z,65.41
2023-04-09T01:59:12.419Z,65.46
2023-04-09T02:01:42.217Z,65.59
2023-04-09T02:04:14.332Z,65.85
2023-04-09T02:06:47.586Z,65.97
2023-04-09T02:09:18.602Z,65.99
2023-04-09T02:11:48.322Z,65.98
2023-04-09T02:14:16.593Z,65.76
2023-04-09T02:16:45.482Z,65.56
2023-04-09T02:19:13.270Z,65.78
2023-04-09T02:21:40.957Z,65.89
2023-04-09T02:24:09.246Z,65.83
2023-04-09T02:26:36.849Z,65.64
2023-04-09T02:29:06.759Z,65.70
2023-04-09T02:31:35.451Z,65.58
2023-04-09T02:34:03.096Z,65.90
2023-04-09T02:36:30.847Z,65.84
2023-04-09T02:39:00.899Z,65.82
2023-04-09T02:41:28.715Z,65.71
2023-04-09T02:43:56.530Z,65.58
2023-04-09T02:46:27.859Z,65.76
2023-04-09T02:48:55.645Z,65.70
2023-04-09T02:51:23.314Z,65.84
2023-04-09T02:53:50.975Z,65.76
2023-04-09T02:56:22.425Z,65.90
2023-04-09T02:58:53.431Z,65.98
2023-04-09T03:01:21.596Z,66.18
2023-04-09T03:03:49.491Z,66.20
2023-04-09T03:06:20.297Z,66.07
2023-04-09T03:08:48.017Z,66.25
2023-04-09T03:11:40.752Z,66.21
2023-04-09T03:14:08.724Z,66.24
2023-04-09T03:16:36.485Z,66.34
2023-04-09T03:19:06.736Z,66.26
2023-04-09T03:21:37.862Z,66.15
2023-04-09T03:24:07.446Z,66.00
2023-04-09T03:26:35.872Z,66.08
2023-04-09T03:29:09.864Z,66.29
2023-04-09T03:31:39.265Z,66.40
2023-04-09T03:34:08.463Z,66.37
2023-04-09T03:36:36.292Z,66.28
2023-04-09T03:39:08.242Z,66.13
2023-04-09T03:41:38.455Z,66.30
2023-04-09T03:44:11.185Z,66.57
2023-04-09T03:47:02.661Z,66.81
2023-04-09T03:49:31.338Z,66.64
2023-04-09T03:52:08.760Z,66.40
2023-04-09T03:54:38.842Z,66.37
2023-04-09T03:57:15.063Z,66.34
2023-04-09T03:59:44.648Z,66.39
2023-04-09T04:02:13.017Z,66.36
2023-04-09T04:04:45.657Z,66.49
2023-04-09T04:07:18.161Z,66.39
2023-04-09T04:09:54.289Z,66.30
2023-04-09T04:12:22.252Z,66.58
2023-04-09T04:15:14.919Z,66.45
2023-04-09T04:17:46.152Z,66.33
2023-04-09T04:20:43.059Z,66.24
2023-04-09T04:23:20.059Z,66.33
2023-04-09T04:25:58.726Z,66.65
2023-04-09T04:28:31.079Z,66.94
2023-04-09T04:30:59.885Z,66.95
2023-04-09T04:33:28.268Z,66.82
2023-04-09T04:36:05.929Z,66.72
2023-04-09T04:38:41.168Z,66.84
2023-04-09T04:41:20.836Z,66.97
2023-04-09T04:43:56.812Z,67.27
2023-04-09T04:46:25.550Z,67.35
2023-04-09T04:48:53.442Z,67.18
2023-04-09T04:51:23.706Z,67.38
2023-04-09T04:54:04.635Z,67.32
2023-04-09T04:56:35.451Z,67.36
2023-04-09T04:59:07.862Z,67.28
2023-04-09T05:01:51.837Z,67.39
2023-04-09T05:04:21.160Z,67.47
2023-04-09T05:06:50.599Z,67.37
2023-04-09T05:09:22.455Z,67.34
2023-04-09T05:12:08.722Z,67.52
2023-04-09T05:14:36.514Z,67.54
2023-04-09T05:17:04.726Z,67.57
2023-04-09T05:19:41.563Z,67.71
2023-04-09T05:22:10.287Z,67.91
2023-04-09T05:24:38.118Z,67.83
2023-04-09T05:27:09.186Z,67.75
2023-04-09T05:29:37.220Z,67.83
2023-04-09T05:32:08.981Z,67.76
2023-04-09T05:34:38.442Z,67.97
2023-04-09T05:37:06.761Z,67.97
2023-04-09T05:39:36.501Z,67.87
2023-04-09T05:42:05.317Z,67.94
2023-04-09T05:44:50.041Z,67.98
2023-04-09T05:47:20.318Z,67.92
2023-04-09T05:49:57.484Z,67.90
2023-04-09T05:52:26.404Z,67.96
2023-04-09T05:54:56.150Z,68.06
2023-04-09T05:57:30.069Z,67.89
2023-04-09T06:00:00.989Z,67.92
2023-04-09T06:02:30.002Z,67.81
2023-04-09T06:04:58.607Z,67.86
2023-04-09T06:07:26.768Z,67.97
2023-04-09T06:09:56.859Z,68.11
2023-04-09T06:12:25.338Z,67.99
2023-04-09T06:14:53.204Z,68.11
2023-04-09T06:17:21.234Z,67.99
2023-04-09T06:19:55.601Z,67.97
2023-04-09T06:22:23.822Z,67.88
2023-04-09T06:24:54.313Z,68.12
2023-04-09T06:27:22.798Z,68.06
2023-04-09T06:29:51.720Z,68.15
2023-04-09T06:32:26.902Z,68.14
2023-04-09T06:34:56.687Z,68.09
2023-04-09T06:37:25.005Z,68.08
2023-04-09T06:40:00.370Z,68.12
2023-04-09T06:42:30.181Z,68.22
2023-04-09T06:45:16.714Z,68.22
2023-04-09T06:47:45.102Z,68.35
2023-04-09T06:50:13.188Z,68.49
2023-04-09T06:52:41.126Z,68.45
2023-04-09T06:55:10.234Z,68.31
2023-04-09T06:57:39.156Z,68.10
2023-04-09T07:00:13.108Z,68.02
2023-04-09T07:02:43.013Z,67.96
2023-04-09T07:05:12.008Z,67.95
2023-04-09T07:07:44.626Z,68.07
2023-04-09T07:10:14.970Z,68.08
2023-04-09T07:12:42.907Z,68.10
2023-04-09T07:15:11.120Z,67.92
2023-04-09T07:17:40.887Z,67.75
2023-04-09T07:20:11.462Z,67.60
2023-04-09T07:22:39.223Z,67.69
2023-04-09T07:25:11.660Z,67.70
2023-04-09T07:27:39.311Z,67.42
2023-04-09T07:30:08.481Z,67.76
2023-04-09T07:32:37.750Z,67.98
2023-04-09T07:35:09.188Z,67.89
2023-04-09T07:37:36.976Z,67.63
2023-04-09T07:40:08.034Z,67.81
2023-04-09T07:42:38.849Z,67.93
2023-04-09T07:45:11.024Z,67.82
2023-04-09T07:47:40.161Z,68.04
2023-04-09T07:50:09.460Z,68.07
2023-04-09T07:52:37.975Z,68.16
2023-04-09T07:55:08.070Z,67.65
2023-04-09T07:57:39.015Z,67.68
2023-04-09T08:00:08.920Z,67.96
2023-04-09T08:02:47.016Z,68.08
2023-04-09T08:05:15.384Z,68.21
2023-04-09T08:07:44.230Z,67.91
2023-04-09T08:10:14.675Z,68.15
2023-04-09T08:12:45.342Z,67.95
2023-04-09T08:15:13.168Z,67.58
2023-04-09T08:17:43.252Z,67.85
2023-04-09T08:20:12.647Z,68.20
2023-04-09T08:22:41.642Z,68.25
2023-04-09T08:25:09.378Z,68.03
2023-04-09T08:27:37.096Z,68.02
2023-04-09T08:30:10.035Z,68.08
2023-04-09T08:32:37.892Z,68.06
2023-04-09T08:35:06.919Z,67.71
2023-04-09T08:37:35.455Z,67.85
2023-04-09T08:40:04.818Z,68.17
2023-04-09T08:42:34.541Z,67.78
2023-04-09T08:45:04.162Z,67.84
2023-04-09T08:47:32.309Z,67.92
2023-04-09T08:50:01.092Z,68.04
2023-04-09T08:52:32.205Z,68.12
2023-04-09T08:55:01.006Z,68.00
2023-04-09T08:57:28.985Z,67.76
2023-04-09T08:59:58.279Z,67.70
2023-04-09T09:02:27.134Z,67.55
2023-04-09T09:05:00.293Z,67.40
2023-04-09T09:07:28.909Z,67.43
2023-04-09T09:10:03.535Z,67.36
2023-04-09T09:12:34.531Z,66.69
2023-04-09T09:15:02.284Z,66.80
2023-04-09T09:17:30.078Z,66.94
2023-04-09T09:19:58.965Z,66.58
2023-04-09T09:22:28.020Z,66.77
2023-04-09T09:24:56.885Z,66.62
2023-04-09T09:27:38.997Z,66.83
2023-04-09T09:30:09.969Z,66.74
2023-04-09T09:32:37.756Z,66.65
2023-04-09T09:35:07.754Z,67.02
2023-04-09T09:37:35.381Z,66.80
2023-04-09T09:40:06.582Z,66.76
2023-04-09T09:42:35.383Z,66.52
2023-04-09T09:45:04.626Z,66.62
2023-04-09T09:47:34.860Z,66.44
2023-04-09T09:50:03.195Z,66.56
2023-04-09T09:52:30.942Z,66.58
2023-04-09T09:55:03.723Z,66.59
2023-04-09T09:57:43.213Z,66.71
2023-04-09T10:00:13.073Z,66.47
2023-04-09T10:02:43.990Z,66.58
2023-04-09T10:05:11.743Z,66.53
2023-04-09T10:07:40.518Z,67.25
2023-04-09T10:10:09.104Z,67.31
2023-04-09T10:12:37.208Z,66.95
2023-04-09T10:15:05.761Z,67.05
2023-04-09T10:17:34.955Z,66.60
2023-04-09T10:20:07.464Z,66.34
2023-04-09T10:22:35.887Z,65.93
2023-04-09T10:25:04.032Z,65.80
2023-04-09T10:27:32.164Z,65.93
2023-04-09T10:30:04.837Z,65.86
2023-04-09T10:32:39.137Z,65.38
2023-04-09T10:35:09.262Z,65.36
2023-04-09T10:37:37.113Z,65.54
2023-04-09T10:40:18.535Z,65.52
2023-04-09T10:42:50.237Z,65.63
2023-04-09T10:47:49.727Z,65.30
2023-04-09T10:50:19.284Z,65.40
2023-04-09T10:52:47.137Z,65.37
2023-04-09T10:55:33.932Z,65.62
2023-04-09T10:58:02.377Z,65.54
2023-04-09T11:00:30.112Z,65.61
2023-04-09T11:03:13.513Z,65.77
2023-04-09T11:05:46.462Z,65.33
2023-04-09T11:08:14.206Z,65.11
2023-04-09T11:10:43.394Z,65.32
2023-04-09T11:13:12.386Z,65.11
2023-04-09T11:15:40.891Z,65.25
2023-04-09T11:18:10.086Z,65.34
2023-04-09T11:20:38.486Z,65.47
2023-04-09T11:23:07.006Z,65.63
2023-04-09T11:25:39.031Z,65.31
2023-04-09T11:28:07.678Z,64.96
2023-04-09T11:30:36.913Z,64.43
2023-04-09T11:33:04.678Z,64.49
2023-04-09T11:35:34.438Z,64.60
2023-04-09T11:38:05.755Z,64.56
2023-04-09T11:40:35.388Z,64.38
2023-04-09T11:43:08.329Z,64.33
2023-04-09T11:45:37.877Z,64.57
2023-04-09T11:48:10.158Z,64.44
2023-04-09T11:50:39.708Z,64.43
2023-04-09T11:53:18.509Z,64.02
2023-04-09T11:55:49.406Z,64.53
2023-04-09T11:58:17.343Z,64.51
2023-04-09T12:00:46.387Z,64.47
2023-04-09T12:03:15.989Z,64.63
2023-04-09T12:05:50.514Z,64.66
2023-04-09T12:08:23.409Z,64.83
2023-04-09T12:10:53.939Z,65.04
2023-04-09T12:13:31.961Z,65.09
2023-04-09T12:16:05.697Z,65.05
2023-04-09T12:18:37.157Z,65.18
2023-04-09T12:21:05.534Z,64.86
2023-04-09T12:23:38.133Z,64.43
2023-04-09T12:28:50.831Z,64.15
2023-04-09T12:31:21.288Z,63.69
2023-04-09T12:33:49.792Z,63.43
2023-04-09T12:36:23.557Z,63.41
2023-04-09T12:38:51.545Z,63.31
2023-04-09T12:41:26.201Z,63.56
2023-04-09T12:43:54.084Z,63.40
2023-04-09T12:46:21.885Z,63.51
2023-04-09T12:48:49.846Z,63.44
2023-04-09T12:51:18.433Z,63.78
2023-04-09T12:53:46.243Z,63.98
2023-04-09T12:56:22.408Z,63.79
2023-04-09T12:58:53.476Z,63.65
2023-04-09T13:01:21.804Z,63.88
2023-04-09T13:03:49.803Z,63.82
2023-04-09T13:06:24.185Z,64.03
2023-04-09T13:08:52.130Z,63.84
2023-04-09T13:11:21.134Z,63.73
2023-04-09T13:13:48.906Z,63.46
2023-04-09T13:16:23.920Z,63.13
2023-04-09T13:18:53.134Z,63.38
2023-04-09T13:21:21.244Z,63.57
2023-04-09T13:23:49.088Z,63.33
2023-04-09T13:26:41.904Z,63.51
2023-04-09T13:29:12.427Z,63.20
2023-04-09T13:31:40.218Z,63.02
2023-04-09T13:34:08.448Z,62.99
2023-04-09T13:36:36.374Z,63.50
2023-04-09T13:39:04.583Z,63.52
2023-04-09T13:41:35.309Z,63.37
2023-04-09T13:44:03.990Z,63.48
2023-04-09T13:46:34.448Z,63.49
2023-04-09T13:49:02.804Z,63.24
2023-04-09T13:51:30.944Z,63.58
2023-04-09T13:53:59.063Z,63.60
2023-04-09T13:56:28.170Z,63.15
2023-04-09T13:58:56.007Z,63.31
2023-04-09T14:01:26.882Z,63.10
2023-04-09T14:03:57.408Z,62.93
2023-04-09T14:06:26.458Z,63.15
2023-04-09T14:08:56.561Z,62.96
2023-04-09T14:11:25.050Z,62.82
2023-04-09T14:13:54.033Z,62.68
2023-04-09T14:16:23.138Z,62.95
2023-04-09T14:18:51.803Z,63.06
2023-04-09T14:21:20.330Z,63.31
2023-04-09T14:23:50.441Z,63.52
2023-04-09T14:26:26.015Z,63.44
2023-04-09T14:28:54.438Z,63.49
2023-04-09T14:31:28.545Z,63.61
2023-04-09T14:33:56.963Z,63.44
2023-04-09T14:36:28.149Z,63.65
2023-04-09T14:39:03.589Z,63.46
2023-04-09T14:41:34.473Z,63.49
2023-04-09T14:44:02.399Z,63.34
2023-04-09T14:46:30.148Z,63.48
2023-04-09T14:49:00.553Z,63.32
2023-04-09T14:51:29.907Z,63.46
2023-04-09T14:53:57.907Z,63.56
2023-04-09T14:56:25.621Z,63.27
2023-04-09T14:58:57.085Z,63.34
2023-04-09T15:01:25.662Z,63.48
2023-04-09T15:03:57.075Z,63.63
2023-04-09T15:06:38.759Z,63.44
2023-04-09T15:09:06.474Z,63.62
2023-04-09T15:11:37.968Z,63.38
2023-04-09T15:14:08.427Z,63.34
2023-04-09T15:16:36.995Z,63.32
2023-04-09T15:19:04.796Z,63.32
2023-04-09T15:21:32.444Z,63.28
2023-04-09T15:24:03.077Z,63.50
2023-04-09T15:26:35.888Z,63.61
2023-04-09T15:29:05.890Z,63.46
2023-04-09T15:31:38.027Z,63.34
2023-04-09T15:34:07.077Z,63.22
2023-04-09T15:36:41.328Z,63.48
2023-04-09T15:39:09.381Z,63.30
2023-04-09T15:41:37.269Z,63.64
2023-04-09T15:44:04.976Z,63.63
2023-04-09T15:46:40.076Z,63.40
2023-04-09T15:49:09.825Z,63.60
2023-04-09T15:51:37.473Z,63.25
2023-04-09T15:54:06.275Z,63.28
2023-04-09T15:56:42.902Z,63.33
2023-04-09T15:59:11.099Z,63.44
2023-04-09T16:01:39.428Z,63.56
2023-04-09T16:04:08.666Z,63.69
2023-04-09T16:06:38.484Z,63.47
2023-04-09T16:09:06.192Z,63.57
2023-04-09T16:11:36.944Z,63.57
2023-04-09T16:14:05.524Z,63.60
2023-04-09T16:16:36.291Z,63.79
2023-04-09T16:19:04.120Z,63.51
2023-04-09T16:21:43.067Z,63.73
2023-04-09T16:24:15.309Z,63.70
2023-04-09T16:26:43.730Z,63.57
2023-04-09T16:29:11.884Z,63.76
2023-04-09T16:31:41.827Z,63.64
2023-04-09T16:34:10.493Z,63.67
2023-04-09T16:36:40.763Z,63.64
2023-04-09T16:39:08.522Z,63.74
2023-04-09T16:41:37.035Z,63.80
2023-04-09T16:44:04.840Z,63.67
2023-04-09T16:46:33.997Z,63.81
2023-04-09T16:49:01.949Z,63.69
2023-04-09T16:51:32.065Z,63.51
2023-04-09T16:54:02.454Z,63.55
2023-04-09T16:56:30.222Z,63.71
2023-04-09T16:58:58.264Z,63.70
2023-04-09T17:01:28.797Z,63.44
2023-04-09T17:03:58.985Z,63.40
2023-04-09T17:06:27.384Z,63.52
2023-04-09T17:08:55.199Z,63.49
2023-04-09T17:11:27.137Z,63.49
2023-04-09T17:13:55.121Z,63.45
2023-04-09T17:16:27.798Z,63.58
2023-04-09T17:18:58.410Z,63.65
2023-04-09T17:21:26.863Z,63.56
2023-04-09T17:23:57.084Z,63.68
2023-04-09T17:26:24.891Z,63.60
2023-04-09T17:28:53.368Z,63.74
2023-04-09T17:31:27.145Z,63.54
2023-04-09T17:33:57.368Z,63.44
2023-04-09T17:36:29.099Z,63.58
2023-04-09T17:38:58.480Z,63.81
2023-04-09T17:41:31.964Z,63.91
2023-04-09T17:44:01.300Z,63.78
2023-04-09T17:46:28.968Z,63.90
2023-04-09T17:49:00.389Z,63.79
2023-04-09T17:51:30.534Z,63.86
2023-04-09T17:53:58.356Z,63.66
2023-04-09T17:56:26.638Z,63.99
2023-04-09T17:58:55.114Z,63.78
2023-04-09T18:01:23.825Z,63.88
2023-04-09T18:03:52.007Z,63.89
2023-04-09T18:06:26.140Z,64.07
2023-04-09T18:08:55.440Z,63.89
2023-04-09T18:11:25.355Z,64.02
2023-04-09T18:13:53.084Z,63.90
2023-04-09T18:16:22.573Z,63.91
2023-04-09T18:18:52.639Z,63.84
2023-04-09T18:21:21.548Z,63.98
2023-04-09T18:23:49.394Z,64.05
2023-04-09T18:26:24.680Z,64.03
2023-04-09T18:28:53.148Z,64.09
2023-04-09T18:31:35.499Z,64.00
2023-04-09T18:34:03.644Z,64.24
2023-04-09T18:36:31.471Z,64.23
2023-04-09T18:38:59.254Z,64.17
2023-04-09T18:41:30.473Z,64.27
2023-04-09T18:43:58.933Z,64.14
2023-04-09T18:46:27.316Z,64.39
2023-04-09T18:48:56.558Z,64.37
2023-04-09T18:51:24.361Z,64.47
2023-04-09T18:53:55.949Z,64.38
2023-04-09T18:56:24.990Z,64.39
2023-04-09T18:58:53.485Z,64.64
2023-04-09T19:01:25.878Z,64.64
2023-04-09T19:03:54.149Z,64.55
2023-04-09T19:06:22.807Z,64.64
2023-04-09T19:08:56.889Z,64.52
2023-04-09T19:11:25.752Z,64.66
2023-04-09T19:13:57.757Z,64.77
2023-04-09T19:16:27.631Z,64.77
2023-04-09T19:18:56.774Z,64.72
2023-04-09T19:21:27.075Z,64.81
2023-04-09T19:23:55.318Z,64.81
2023-04-09T19:26:23.654Z,64.76
2023-04-09T19:28:51.956Z,64.71
2023-04-09T19:31:20.706Z,64.82
2023-04-09T19:33:51.225Z,64.74
2023-04-09T19:36:22.459Z,64.91
2023-04-09T19:38:50.679Z,64.83
2023-04-09T19:41:21.562Z,64.94
2023-04-09T19:43:49.393Z,64.86
2023-04-09T19:46:19.391Z,64.91
2023-04-09T19:48:47.769Z,64.95
2023-04-09T19:51:22.021Z,64.90
2023-04-09T19:53:49.910Z,64.92
2023-04-09T19:56:22.647Z,64.94
2023-04-09T19:58:51.196Z,65.05
2023-04-09T20:01:21.509Z,65.13
2023-04-09T20:03:49.604Z,65.05
2023-04-09T20:06:22.655Z,65.10
2023-04-09T20:08:52.935Z,65.09
2023-04-09T20:11:23.599Z,65.30
2023-04-09T20:13:51.312Z,65.20
2023-04-09T20:16:23.621Z,64.99
2023-04-09T20:18:52.873Z,65.01
2023-04-09T20:21:20.973Z,65.18
2023-04-09T20:23:50.036Z,65.28
2023-04-09T20:26:21.882Z,65.22
2023-04-09T20:28:49.964Z,65.32
2023-04-09T20:31:18.480Z,65.27
2023-04-09T20:33:49.316Z,65.24
2023-04-09T20:36:20.895Z,65.20
2023-04-09T20:38:48.777Z,65.32
2023-04-09T20:41:25.186Z,65.34
2023-04-09T20:43:55.874Z,65.33
2023-04-09T20:46:24.435Z,65.30
2023-04-09T20:48:54.820Z,65.43
2023-04-09T20:51:22.747Z,65.27
2023-04-09T20:53:51.752Z,65.31
2023-04-09T20:56:27.230Z,65.21
2023-04-09T20:58:56.807Z,65.49
2023-04-09T21:01:26.671Z,65.30
2023-04-09T21:03:54.476Z,65.44
2023-04-09T21:06:24.254Z,65.59
2023-04-09T21:08:52.146Z,65.48
2023-04-09T21:11:21.304Z,65.50
2023-04-09T21:13:55.052Z,65.37
2023-04-09T21:16:27.960Z,65.52
2023-04-09T21:18:55.855Z,65.48
2023-04-09T21:21:26.782Z,65.45
2023-04-09T21:23:57.591Z,65.45
2023-04-09T21:26:25.877Z,65.52
2023-04-09T21:28:53.899Z,65.42
2023-04-09T21:31:22.142Z,65.49
2023-04-09T21:33:52.720Z,65.45
2023-04-09T21:36:20.765Z,65.28
2023-04-09T21:38:51.210Z,65.18
2023-04-09T21:41:24.367Z,65.28
2023-04-09T21:43:55.010Z,65.33
2023-04-09T21:46:24.703Z,65.23
2023-04-09T21:48:53.041Z,65.26
2023-04-09T21:51:21.162Z,65.09
2023-04-09T21:53:49.157Z,65.26
2023-04-09T21:56:25.359Z,65.33
2023-04-09T21:58:53.200Z,65.54
2023-04-09T22:01:29.209Z,65.53
2023-04-09T22:03:57.777Z,65.60
2023-04-09T22:06:26.908Z,65.61
2023-04-09T22:08:57.053Z,65.64
2023-04-09T22:11:27.059Z,65.58
2023-04-09T22:13:58.015Z,65.65
2023-04-09T22:16:26.259Z,65.69
2023-04-09T22:18:55.051Z,65.66
2023-04-09T22:21:25.421Z,65.61
2023-04-09T22:23:53.831Z,65.70
2023-04-09T22:26:23.386Z,65.58
2023-04-09T22:28:53.137Z,65.54
2023-04-09T22:31:21.470Z,65.64
2023-04-09T22:33:49.409Z,65.74
2023-04-09T22:36:23.195Z,65.85
2023-04-09T22:38:55.202Z,65.92
2023-04-09T22:41:23.812Z,65.93
2023-04-09T22:43:52.015Z,66.13
2023-04-09T22:46:21.741Z,66.47
2023-04-09T22:48:52.381Z,66.75
2023-04-09T22:51:20.139Z,66.81
2023-04-09T22:53:47.901Z,66.82
2023-04-09T22:56:25.430Z,66.72
2023-04-09T22:58:53.441Z,66.25
2023-04-09T23:01:21.585Z,66.26
2023-04-09T23:03:49.875Z,66.18
2023-04-09T23:06:21.668Z,65.91
2023-04-09T23:08:49.426Z,65.84
2023-04-09T23:11:23.789Z,65.84
2023-04-09T23:13:53.491Z,65.90
2023-04-09T23:16:21.416Z,66.04
2023-04-09T23:18:49.402Z,66.11
2023-04-09T23:21:17.101Z,66.21
2023-04-09T23:23:49.128Z,66.21
2023-04-09T23:26:41.517Z,66.08
2023-04-09T23:29:09.165Z,66.02
2023-04-09T23:31:37.203Z,66.35
2023-04-09T23:34:05.333Z,66.47
2023-04-09T23:36:33.439Z,66.66
2023-04-09T23:39:03.919Z,66.64
2023-04-09T23:41:31.680Z,66.67
2023-04-09T23:44:01.501Z,66.69
2023-04-09T23:46:29.330Z,66.35
2023-04-09T23:48:56.994Z,66.04
2023-04-09T23:51:25.459Z,66.09
2023-04-09T23:53:53.541Z,66.30
2023-04-09T23:56:24.639Z,66.48
2023-04-09T23:58:52.263Z,66.42
